createdAt,value
2019-04-05T07:56:54.938Z,28.7022
2019-04-05T07:57:00.682Z,28.7205
2019-04-05T08:06:20.296Z,28.1346
2019-04-05T09:14:05.474Z,28.5939
2019-04-05T09:27:36.010Z,28.0262
2019-04-05T09:31:26.120Z,28.5969
2019-04-05T09:37:48.023Z,28.4062
2019-04-05T09:37:53.704Z,28.2048
2019-04-05T09:37:59.757Z,28.1666
2019-04-05T09:44:18.992Z,27.7241
2019-04-05T09:44:24.723Z,27.5776
2019-04-05T09:44:30.803Z,27.6371
2019-04-05T09:44:36.712Z,27.6188
2019-04-05T09:47:26.997Z,27.8462
2019-04-05T10:40:15.834Z,29.3675
2019-04-05T10:40:21.825Z,29.1875
2019-04-05T10:40:27.833Z,28.7343
2019-04-05T10:40:33.871Z,28.4337
2019-04-05T10:40:39.830Z,28.2307
2019-04-05T10:40:45.817Z,28.2002
2019-04-05T10:40:51.819Z,28.1529
2019-04-05T10:42:03.457Z,28.6076
2019-04-05T10:42:14.857Z,28.5969
2019-04-05T10:42:20.866Z,28.5847
2019-04-05T10:42:26.863Z,28.5100
2019-04-05T10:42:32.856Z,28.5069
2019-04-05T10:42:38.850Z,28.4459
2019-04-05T10:48:35.860Z,28.8640
2019-04-05T10:48:41.839Z,28.7617
2019-04-05T10:48:47.842Z,29.2805
2019-04-05T10:48:53.856Z,28.9998
2019-04-05T10:48:59.860Z,28.7984
2019-04-05T10:49:05.858Z,28.7037
2019-04-05T10:49:11.837Z,28.6534
2019-04-05T10:49:17.866Z,28.6381
2019-04-05T10:49:23.853Z,28.5435
2019-04-05T10:49:29.843Z,28.5008
2019-04-05T10:59:02.632Z,32.5811
2019-04-05T10:59:08.669Z,31.5007
2019-04-05T10:59:14.628Z,30.7027
2019-04-05T10:59:20.648Z,31.6564
2019-04-05T10:59:26.647Z,33.0251
2019-04-05T10:59:32.671Z,36.0189
2019-04-05T10:59:38.656Z,33.1762
2019-04-05T11:33:25.210Z,29.5918
2019-04-05T11:33:31.213Z,29.6239
2019-04-05T11:33:37.216Z,29.8116
2019-04-05T11:33:43.221Z,29.9519
2019-04-05T11:33:49.202Z,29.8604
2019-04-05T11:33:55.177Z,30.0481
2019-04-05T11:34:01.204Z,29.9245
2019-04-05T11:34:07.200Z,29.7520
2019-04-05T11:34:13.198Z,29.6880
2019-04-05T11:34:19.213Z,29.6422
2019-04-05T11:34:25.265Z,29.6407
2019-04-05T11:34:31.218Z,29.6101
2019-04-05T11:34:37.198Z,29.6559
2019-04-05T11:34:43.198Z,29.7200
2019-04-05T11:34:49.192Z,29.6910
2019-04-05T11:34:55.200Z,29.5918
2019-04-05T11:35:01.202Z,29.6407
2019-04-05T11:35:07.196Z,29.5918
2019-04-05T11:35:15.037Z,29.5811
2019-04-05T11:35:21.216Z,29.5491
2019-04-05T11:35:28.222Z,29.6056
2019-04-05T11:35:34.218Z,29.6422
2019-04-05T11:35:40.215Z,29.4957
2019-04-05T11:35:46.210Z,29.5140
2019-04-05T11:35:52.211Z,29.5354
2019-04-05T11:35:58.196Z,29.5598
2019-04-05T11:36:04.188Z,29.5918
2019-04-05T11:36:11.622Z,29.6727
2019-04-05T11:36:19.216Z,29.6559
2019-04-05T11:36:25.188Z,29.6239
2019-04-05T11:36:31.184Z,29.6223
2019-04-05T11:36:37.194Z,29.6407
2019-04-05T11:36:43.201Z,29.5262
2019-04-05T11:36:49.178Z,29.6193
2019-04-05T11:36:55.188Z,29.6651
2019-04-05T11:37:02.843Z,29.6361
2019-04-05T11:37:09.190Z,29.5445
2019-04-05T11:37:16.891Z,29.6361
2019-04-05T11:37:25.198Z,30.4051
2019-04-05T11:37:31.206Z,29.9489
2019-04-05T11:37:39.510Z,29.7459
2019-04-05T11:37:45.201Z,29.7429
2019-04-05T11:37:54.076Z,29.7459
2019-04-05T11:38:00.193Z,29.6834
2019-04-05T11:38:06.212Z,29.6971
2019-04-05T11:38:12.196Z,29.7459
2019-04-05T11:38:18.206Z,29.7749
2019-04-05T11:38:24.569Z,29.8070
2019-04-05T11:38:30.194Z,29.7597
2019-04-05T11:38:36.197Z,29.6147
2019-04-05T11:38:42.211Z,29.6605
2019-04-05T11:38:50.911Z,29.6925
2019-04-05T11:38:57.220Z,29.6330
2019-04-05T11:39:05.345Z,29.6635
2019-04-05T11:39:11.187Z,29.6925
2019-04-05T11:39:17.200Z,29.7429
2019-04-05T11:39:23.185Z,29.7566
2019-04-05T11:39:29.195Z,29.7246
2019-04-05T11:39:35.195Z,29.7230
2019-04-05T11:39:41.192Z,29.8619
2019-04-05T11:39:48.625Z,29.9428
2019-04-05T11:39:54.191Z,29.9245
2019-04-05T11:40:00.217Z,29.9245
2019-04-05T11:40:06.244Z,30.0206
2019-04-05T11:40:12.203Z,30.0984
2019-04-05T11:40:18.181Z,30.2373
2019-04-05T11:40:24.305Z,30.0175
2019-04-05T11:40:30.184Z,29.8787
2019-04-05T11:40:36.186Z,29.8756
2019-04-05T11:40:42.204Z,30.0175
2019-04-05T11:40:48.210Z,30.1442
2019-04-05T11:40:54.180Z,30.1595
2019-04-05T11:41:00.225Z,30.0954
2019-04-05T11:41:06.196Z,30.0450
2019-04-05T11:41:12.199Z,30.1915
2019-04-05T11:41:18.227Z,30.1259
2019-04-05T11:41:24.190Z,30.2037
2019-04-05T11:41:30.192Z,30.1411
2019-04-05T11:41:36.188Z,30.1259
2019-04-05T11:41:42.195Z,30.0587
2019-04-05T11:41:48.193Z,30.0587
2019-04-05T11:41:54.201Z,29.9351
2019-04-05T11:42:00.212Z,29.8100
2019-04-05T11:42:06.186Z,29.7139
2019-04-05T11:42:12.202Z,29.7780
2019-04-05T12:20:33.783Z,62.3316
2019-04-05T12:20:49.726Z,63.1052
2019-04-05T12:21:00.363Z,63.8880
2019-04-05T12:21:07.345Z,62.2995
2019-04-05T12:21:14.350Z,61.9348
2019-04-05T12:21:39.443Z,63.9902
2019-04-05T12:21:46.466Z,64.0543
2019-04-05T12:21:53.446Z,64.6448
2019-04-05T12:22:00.436Z,64.9546
2019-04-05T12:22:09.151Z,63.5691
2019-04-05T12:22:16.435Z,62.7298
2019-04-05T12:22:23.441Z,63.7247
2019-04-05T12:22:30.455Z,63.6515
2019-04-05T12:22:37.446Z,63.4348
2019-04-05T12:22:44.610Z,64.8722
2019-04-05T12:22:52.625Z,64.7944
2019-04-05T12:22:59.456Z,65.0385
2019-04-05T12:23:06.420Z,66.6224
2019-04-05T12:23:13.474Z,68.1636
2019-04-05T12:23:20.472Z,66.5675
2019-04-05T12:23:27.440Z,64.1993
2019-04-05T12:23:34.451Z,62.6200
2019-04-05T12:23:41.452Z,63.3570
2019-04-05T12:23:48.452Z,64.9409
2019-04-05T12:23:55.425Z,63.6088
2019-04-05T12:24:02.568Z,63.4852
2019-04-05T12:24:10.476Z,63.9109
2019-04-05T12:24:17.434Z,64.6769
2019-04-05T12:24:24.442Z,65.7923
2019-04-05T12:24:32.671Z,64.2771
2019-04-05T12:24:40.504Z,63.7934
2019-04-05T12:24:47.725Z,64.0635
2019-04-05T12:24:54.460Z,65.4322
2019-04-05T12:25:02.823Z,65.7008
2019-04-05T12:25:10.456Z,62.5986
2019-04-05T12:25:16.453Z,62.1576
2019-04-05T12:25:23.432Z,63.2532
2019-04-05T12:25:31.835Z,63.8285
2019-04-05T12:25:43.151Z,63.3661
2019-04-05T12:25:50.724Z,62.7176
2019-04-05T12:25:57.442Z,62.8672
2019-04-05T12:26:04.987Z,63.2395
2019-04-05T12:26:12.455Z,63.2105
2019-04-05T12:26:19.481Z,62.2461
2019-04-05T12:26:26.445Z,63.5050
2019-04-05T12:26:34.544Z,63.2395
2019-04-05T12:26:42.850Z,61.4725
2019-04-05T12:26:49.553Z,61.5137
2019-04-05T12:26:56.464Z,61.0315
2019-04-05T12:27:04.848Z,61.5000
2019-04-05T12:27:12.484Z,66.7048
2019-04-05T12:27:20.802Z,65.2567
2019-04-05T12:27:27.441Z,63.4577
2019-04-05T12:27:34.440Z,63.1281
2019-04-05T12:27:41.434Z,63.2105
2019-04-05T12:27:48.434Z,63.2578
2019-04-05T12:28:05.677Z,62.2782
2019-04-05T12:28:10.579Z,61.2757
2019-04-05T12:28:17.441Z,61.0590
2019-04-05T12:28:24.455Z,60.2716
2019-04-05T12:28:31.459Z,60.8209
2019-04-05T12:28:38.430Z,61.0788
2019-04-05T12:28:45.441Z,61.4679
2019-04-05T12:28:52.433Z,61.7273
2019-04-05T12:28:59.459Z,63.8712
2019-04-05T12:29:06.414Z,63.8102
2019-04-05T12:29:13.419Z,64.0665
2019-04-05T12:29:20.440Z,63.9170
2019-04-05T12:29:27.430Z,62.6520
2019-04-05T12:29:34.427Z,62.0310
2019-04-05T12:29:41.561Z,61.7517
2019-04-05T12:29:48.512Z,62.0798
2019-04-05T12:29:55.501Z,63.3494
2019-04-05T12:30:02.530Z,62.9953
2019-04-05T12:30:09.582Z,61.6602
2019-04-05T12:30:16.510Z,62.2461
2019-04-05T12:30:23.522Z,61.3214
2019-04-05T12:30:30.505Z,62.2904
2019-04-05T12:30:38.421Z,62.0172
2019-04-05T12:30:46.001Z,63.4668
2019-04-05T12:30:53.506Z,62.4872
2019-04-05T12:31:00.528Z,62.2446
2019-04-05T12:31:07.538Z,64.2863
2019-04-05T12:31:14.500Z,62.3865
2019-04-05T12:31:21.508Z,62.4781
2019-04-05T12:31:28.522Z,63.2242
2019-04-05T12:31:35.528Z,62.2766
2019-04-05T12:31:42.544Z,61.5351
2019-04-05T12:31:49.548Z,61.4343
2019-04-05T12:31:56.526Z,61.3474
2019-04-05T12:32:03.528Z,63.0823
2019-04-05T12:32:13.077Z,62.1302
2019-04-05T12:32:32.792Z,64.3870
2019-04-05T12:32:34.402Z,63.9200
2019-04-05T12:32:43.531Z,64.0253
2019-04-05T12:32:50.536Z,62.4979
2019-04-05T12:32:57.510Z,62.2049
2019-04-05T12:33:13.826Z,65.0706
2019-04-05T12:33:19.305Z,66.4469
2019-04-05T12:33:27.552Z,65.0660
2019-04-05T12:33:34.514Z,63.7278
2019-04-05T12:33:41.555Z,64.1810
2019-04-05T12:33:51.388Z,67.2038
2019-04-05T12:33:59.540Z,67.2892
2019-04-05T12:34:06.528Z,64.4327
2019-04-05T12:34:13.522Z,63.7751
2019-04-05T12:34:22.246Z,64.2832
2019-04-05T12:34:29.542Z,64.7181
2019-04-05T12:34:36.527Z,66.6590
2019-04-05T12:34:43.508Z,65.9709
2019-04-05T12:34:51.859Z,66.2562
2019-04-05T12:34:59.528Z,66.6896
2019-04-05T12:35:08.328Z,67.7241
2019-04-05T12:35:15.554Z,68.8182
2019-04-05T12:35:22.524Z,67.8248
2019-04-05T12:35:29.537Z,68.0323
2019-04-05T12:35:37.743Z,64.7639
2019-04-05T12:35:44.513Z,63.9994
2019-04-05T12:35:52.954Z,65.0340
2019-04-05T12:36:01.549Z,64.1489
2019-04-05T12:36:08.366Z,65.7298
2019-04-05T12:36:16.380Z,64.8096
2019-04-05T12:36:24.370Z,66.2867
2019-04-05T12:36:32.370Z,67.4586
2019-04-05T12:36:40.457Z,68.0674
2019-04-05T12:36:48.390Z,67.8523
2019-04-05T12:36:56.500Z,64.4007
2019-04-05T12:37:04.350Z,65.2171
2019-04-05T12:37:12.383Z,63.0472
2019-04-05T12:37:21.916Z,63.1205
2019-04-05T12:37:30.508Z,64.5853
2019-04-05T12:37:49.580Z,64.7547
2019-04-05T12:37:55.481Z,65.4261
2019-04-05T12:38:06.824Z,65.5589
2019-04-05T12:38:27.996Z,64.8173
2019-04-05T12:38:30.679Z,65.3132
2019-04-05T12:38:39.379Z,66.2562
2019-04-05T12:38:46.885Z,66.6590
2019-04-05T12:38:54.378Z,67.8584
2019-04-05T12:39:01.589Z,67.0390
2019-04-05T12:39:11.429Z,64.6311
2019-04-05T12:39:19.435Z,62.8962
2019-04-05T12:39:27.466Z,62.6337
2019-04-05T12:39:36.427Z,63.0518
2019-04-05T12:39:45.415Z,64.4144
2019-04-05T12:39:53.475Z,66.2287
2019-04-05T12:40:01.395Z,66.3569
2019-04-05T12:40:10.163Z,65.4047
2019-04-05T12:40:19.415Z,65.0553
2019-04-05T12:40:27.415Z,65.4307
2019-04-05T12:40:35.409Z,66.7048
2019-04-05T12:40:44.213Z,67.7806
2019-04-05T12:40:52.405Z,67.2496
2019-04-05T12:41:00.415Z,65.5421
2019-04-05T12:41:10.977Z,64.8585
2019-04-05T12:41:18.511Z,65.1652
2019-04-05T12:41:26.425Z,66.1326
2019-04-05T12:41:34.425Z,64.6220
2019-04-05T12:41:44.927Z,65.8015
2019-04-05T12:41:53.405Z,65.8488
2019-04-05T12:42:01.406Z,66.0578
2019-04-05T12:42:11.933Z,65.8854
2019-04-05T12:42:21.518Z,63.7156
2019-04-05T12:42:29.378Z,64.0177
2019-04-05T12:42:37.359Z,66.0960
2019-04-05T12:42:45.398Z,65.9159
2019-04-05T12:42:53.390Z,64.8188
2019-04-05T12:43:01.375Z,66.1646
2019-04-05T12:43:13.078Z,65.7801
2019-04-05T12:43:22.410Z,65.3178
2019-04-05T12:43:30.422Z,65.1896
2019-04-05T12:43:38.391Z,65.3666
2019-04-05T12:43:50.677Z,66.4012
2019-04-05T12:43:59.382Z,68.2231
2019-04-05T12:44:06.373Z,69.1157
2019-04-05T12:44:15.200Z,68.5725
2019-04-05T12:44:23.361Z,69.3126
2019-04-05T12:44:31.835Z,67.2724
2019-04-05T12:44:39.377Z,66.6758
2019-04-05T12:44:47.386Z,66.7079
2019-04-05T12:44:55.404Z,66.4240
2019-04-05T12:45:03.376Z,67.2847
2019-04-05T12:45:14.716Z,68.2383
2019-04-05T12:45:23.367Z,66.9245
2019-04-05T12:45:32.373Z,66.8009
2019-04-05T12:45:40.367Z,65.4459
2019-04-05T12:45:48.387Z,65.2934
2019-04-05T12:45:56.567Z,66.8055
2019-04-05T12:46:04.389Z,67.9118
2019-04-05T12:46:15.096Z,68.5939
2019-04-05T12:46:24.400Z,67.9118
2019-04-05T12:46:32.400Z,66.5400
2019-04-05T12:46:40.400Z,66.3737
2019-04-05T12:46:48.403Z,65.1148
2019-04-05T12:46:56.420Z,65.2079
2019-04-05T12:47:04.400Z,66.3005
2019-04-05T12:47:13.906Z,65.6336
2019-04-05T12:47:24.359Z,66.2272
2019-04-05T12:47:34.021Z,67.5105
2019-04-05T12:47:45.313Z,67.6646
2019-04-05T12:47:54.382Z,67.4998
2019-04-05T12:48:02.381Z,66.2638
2019-04-05T12:48:10.376Z,65.2125
2019-04-05T12:48:18.366Z,65.6504
2019-04-05T12:48:26.364Z,66.1494
2019-04-05T12:48:34.373Z,66.4790
2019-04-05T12:48:45.514Z,66.8833
2019-04-05T12:48:54.390Z,67.0069
2019-04-05T12:49:02.390Z,66.6209
2019-04-05T12:49:10.362Z,66.4652
2019-04-05T12:49:18.392Z,66.5568
2019-04-05T12:49:26.354Z,67.0802
2019-04-05T12:49:34.372Z,66.9795
2019-04-05T12:49:43.348Z,66.8452
2019-04-05T12:49:53.382Z,68.4245
2019-04-05T12:50:01.377Z,70.3929
2019-04-05T12:50:09.882Z,72.3446
2019-04-05T12:50:17.422Z,68.9296
2019-04-05T12:50:25.530Z,68.0415
2019-04-05T12:50:33.386Z,69.1539
2019-04-05T12:50:40.378Z,68.1880
2019-04-05T12:51:00.318Z,67.2084
2019-04-05T12:51:01.850Z,67.8523
2019-04-05T12:51:13.179Z,66.7628
2019-04-05T12:51:23.430Z,66.3020
2019-04-05T12:51:31.396Z,66.6758
2019-04-05T12:51:39.352Z,67.4968
2019-04-05T12:51:47.410Z,67.8798
2019-04-05T12:51:55.383Z,66.2547
2019-04-05T12:52:03.384Z,67.3671
2019-04-05T12:52:21.829Z,69.9763
2019-04-05T12:52:27.253Z,66.3462
2019-04-05T12:52:35.384Z,66.6117
2019-04-05T12:52:43.386Z,67.0848
2019-04-05T12:52:51.391Z,64.4068
2019-04-05T12:52:59.362Z,64.3336
2019-04-05T12:53:07.395Z,64.6296
2019-04-05T12:53:15.372Z,65.8061
2019-04-05T12:53:24.719Z,67.0665
2019-04-05T12:53:34.391Z,67.9072
2019-04-05T12:53:42.381Z,65.9800
2019-04-05T12:53:50.360Z,65.1560
2019-04-05T12:53:58.370Z,64.4846
2019-04-05T12:54:07.370Z,64.0848
2019-04-05T12:54:15.400Z,65.0462
2019-04-05T12:54:23.410Z,66.4195
2019-04-05T12:54:31.372Z,66.7918
2019-04-05T12:54:39.414Z,67.3548
2019-04-05T12:54:50.674Z,68.4169
2019-04-05T12:55:00.494Z,69.1447
2019-04-05T12:55:08.385Z,68.8197
2019-04-05T12:55:16.430Z,67.1427
2019-04-05T12:55:24.511Z,65.4169
2019-04-05T12:55:32.372Z,64.3732
2019-04-05T12:55:39.395Z,65.1560
2019-04-05T12:55:47.384Z,66.2745
2019-04-05T12:55:57.009Z,66.4027
2019-04-05T12:56:05.364Z,67.1809
2019-04-05T12:56:13.361Z,68.9281
2019-04-05T12:56:21.392Z,70.3578
2019-04-05T12:56:29.381Z,69.4728
2019-04-05T12:56:36.361Z,70.8049
2019-04-05T12:56:44.850Z,70.5455
2019-04-05T12:56:54.157Z,69.5003
2019-04-05T12:57:02.385Z,69.5506
2019-04-05T12:57:10.368Z,67.3899
2019-04-05T12:57:20.386Z,65.4353
2019-04-05T12:57:29.374Z,65.1194
2019-04-05T12:57:37.373Z,65.6107
2019-04-05T12:57:44.404Z,66.0166
2019-04-05T12:57:51.372Z,67.0069
2019-04-05T12:57:59.394Z,65.6153
2019-04-05T12:58:09.825Z,64.9104
2019-04-05T12:58:18.371Z,65.4307
2019-04-05T12:58:26.729Z,65.3590
2019-04-05T12:58:34.371Z,65.1987
2019-04-05T12:58:42.505Z,65.2354
2019-04-05T12:58:50.418Z,66.9474
2019-04-05T12:58:58.545Z,66.7186
2019-04-05T12:59:06.385Z,67.3075
2019-04-05T12:59:14.402Z,65.6062
2019-04-05T12:59:25.141Z,64.8676
2019-04-05T12:59:33.384Z,65.4276
2019-04-05T12:59:41.394Z,65.8061
2019-04-05T12:59:51.255Z,65.9937
2019-04-05T12:59:59.379Z,64.8096
2019-04-05T13:00:07.393Z,64.2496
2019-04-05T13:00:15.382Z,63.9017
2019-04-05T13:00:23.601Z,64.6632
2019-04-05T13:00:33.370Z,65.5909
2019-04-05T13:00:41.381Z,64.7486
2019-04-05T13:00:50.365Z,65.6504
2019-04-05T13:00:58.396Z,66.0227
2019-04-05T13:01:08.375Z,65.8579
2019-04-05T13:01:16.407Z,65.7237
2019-04-05T13:01:24.360Z,65.2430
2019-04-05T13:01:34.934Z,64.4099
2019-04-05T13:01:43.518Z,64.9454
2019-04-05T13:01:53.376Z,64.6113
2019-04-05T13:02:01.361Z,64.4831
2019-04-05T13:02:09.362Z,64.6677
2019-04-05T13:02:23.616Z,66.1585
2019-04-05T13:02:33.935Z,65.7618
2019-04-05T13:02:42.390Z,65.6733
2019-04-05T13:02:50.998Z,65.8854
2019-04-05T13:02:59.352Z,65.9068
2019-04-05T13:03:07.391Z,67.0069
2019-04-05T13:03:15.384Z,67.2175
2019-04-05T13:03:23.370Z,67.5914
2019-04-05T13:03:31.390Z,68.4977
2019-04-05T13:03:39.361Z,68.5359
2019-04-05T13:03:47.390Z,68.1926
2019-04-05T13:03:58.397Z,68.4337
2019-04-05T13:04:06.380Z,67.8889
2019-04-05T13:04:14.359Z,67.6783
2019-04-05T13:04:21.398Z,66.9688
2019-04-05T13:04:29.362Z,67.2999
2019-04-05T13:04:37.378Z,66.5934
2019-04-05T13:04:45.372Z,66.5248
2019-04-05T13:04:53.389Z,66.5537
2019-04-05T13:05:01.401Z,66.3066
2019-04-05T13:05:09.692Z,66.5293
2019-04-05T13:05:20.284Z,66.5080
2019-04-05T13:05:29.358Z,66.8055
2019-04-05T13:05:37.378Z,65.7526
2019-04-05T13:05:45.391Z,65.5970
2019-04-05T13:05:53.370Z,65.7923
2019-04-05T13:06:01.394Z,66.7536
2019-04-05T13:06:10.373Z,66.7811
2019-04-05T13:06:19.814Z,67.0466
2019-04-05T13:06:29.975Z,68.1926
2019-04-05T13:06:37.364Z,69.7353
2019-04-05T13:06:45.378Z,69.9123
2019-04-05T13:06:53.724Z,68.8884
2019-04-05T13:07:01.401Z,69.1569
2019-04-05T13:07:09.370Z,68.9418
2019-04-05T13:07:17.405Z,69.1997
2019-04-05T13:07:25.376Z,67.0619
2019-04-05T13:07:35.035Z,65.9907
2019-04-05T13:07:43.419Z,67.4220
2019-04-05T13:07:50.709Z,67.3640
2019-04-05T13:08:00.370Z,68.3330
2019-04-05T13:08:08.366Z,68.9464
2019-04-05T13:08:16.408Z,66.9688
2019-04-05T13:08:24.379Z,68.0812
2019-04-05T13:08:32.385Z,69.1798
2019-04-05T13:08:40.391Z,68.3528
2019-04-05T13:08:47.414Z,66.7872
2019-04-05T13:08:55.374Z,65.4582
2019-04-05T13:09:05.296Z,64.9409
2019-04-05T13:09:13.924Z,65.8259
2019-04-05T13:09:23.387Z,65.3757
2019-04-05T13:09:32.370Z,66.1814
2019-04-05T13:09:40.387Z,66.0548
2019-04-05T13:09:48.419Z,65.6428
2019-04-05T13:09:56.404Z,65.0889
2019-04-05T13:10:04.412Z,64.9149
2019-04-05T13:10:12.378Z,65.3208
2019-04-05T13:10:20.395Z,66.4607
2019-04-05T13:10:30.285Z,66.2364
2019-04-05T13:10:38.423Z,64.8676
2019-04-05T13:10:46.406Z,66.0624
2019-04-05T13:10:55.822Z,68.7556
2019-04-05T13:11:04.411Z,70.5257
2019-04-05T13:11:12.421Z,67.6616
2019-04-05T13:11:20.457Z,66.0090
2019-04-05T13:11:28.433Z,65.4765
2019-04-05T13:11:36.406Z,65.5543
2019-04-05T13:11:44.394Z,64.6082
2019-04-05T13:11:51.416Z,63.7430
2019-04-05T13:11:59.989Z,63.9811
2019-04-05T13:12:08.357Z,64.0269
2019-04-05T13:12:16.408Z,64.8997
2019-04-05T13:12:26.295Z,65.5268
2019-04-05T13:12:34.393Z,64.5563
2019-04-05T13:12:42.382Z,64.2557
2019-04-05T13:12:51.872Z,64.2817
2019-04-05T13:13:00.450Z,65.1606
2019-04-05T13:13:08.361Z,66.3294
2019-04-05T13:13:16.381Z,66.2608
2019-04-05T13:13:26.552Z,68.0690
2019-04-05T13:13:35.395Z,68.4794
2019-04-05T13:13:43.351Z,67.8447
2019-04-05T13:13:51.388Z,66.1921
2019-04-05T13:13:59.371Z,66.6362
2019-04-05T13:14:07.370Z,65.1835
2019-04-05T13:14:15.378Z,65.2583
2019-04-05T13:14:26.077Z,65.8289
2019-04-05T13:14:34.383Z,65.1789
2019-04-05T13:14:42.399Z,65.8625
2019-04-05T13:14:50.380Z,64.6342
2019-04-05T13:15:11.276Z,64.2100
2019-04-05T13:15:16.559Z,64.0024
2019-04-05T13:15:24.379Z,65.7755
2019-04-05T13:15:32.369Z,65.2476
2019-04-05T13:15:40.657Z,66.3523
2019-04-05T13:15:48.392Z,66.8513
2019-04-05T13:15:59.134Z,66.4714
2019-04-05T13:16:09.861Z,66.0410
2019-04-05T13:16:19.394Z,66.6453
2019-04-05T13:16:27.364Z,67.4174
2019-04-05T13:16:35.360Z,67.0024
2019-04-05T13:16:43.374Z,66.1326
2019-04-05T13:16:51.387Z,67.9500
2019-04-05T13:17:01.573Z,67.1717
2019-04-05T13:17:09.378Z,66.3386
2019-04-05T13:17:17.357Z,66.7048
2019-04-05T13:17:24.385Z,66.4530
2019-04-05T13:17:32.453Z,66.6728
2019-04-05T13:17:40.409Z,67.4784
2019-04-05T13:17:48.384Z,66.6850
2019-04-05T13:17:56.383Z,66.3569
2019-04-05T13:18:04.421Z,66.5949
2019-04-05T13:18:12.355Z,66.1418
2019-04-05T13:18:20.397Z,67.4266
2019-04-05T13:18:30.479Z,68.4657
2019-04-05T13:18:39.364Z,67.7424
2019-04-05T13:18:47.364Z,68.5664
2019-04-05T13:18:55.376Z,69.5186
2019-04-05T13:19:03.345Z,69.1524
2019-04-05T13:19:11.673Z,67.1717
2019-04-05T13:19:19.373Z,66.2013
2019-04-05T13:19:28.524Z,65.4032
2019-04-05T13:19:38.366Z,64.8127
2019-04-05T13:19:46.386Z,63.8422
2019-04-05T13:19:54.385Z,64.9973
2019-04-05T13:20:02.370Z,64.7761
2019-04-05T13:20:10.375Z,65.9113
2019-04-05T13:20:18.385Z,64.9821
2019-04-05T13:20:25.360Z,64.8859
2019-04-05T13:20:33.380Z,65.6413
2019-04-05T13:20:41.417Z,65.2659
2019-04-05T13:20:49.403Z,64.4694
2019-04-05T13:20:59.864Z,65.6153
2019-04-05T13:21:15.078Z,64.8447
2019-04-05T13:21:26.059Z,66.3706
2019-04-05T13:21:34.431Z,66.8788
2019-04-05T13:21:42.408Z,66.5812
2019-04-05T13:21:50.386Z,66.1311
2019-04-05T13:21:58.405Z,67.4723
2019-04-05T13:22:06.365Z,69.0242
2019-04-05T13:22:14.376Z,68.8365
2019-04-05T13:22:23.491Z,67.9957
2019-04-05T13:22:32.949Z,68.2155
2019-04-05T13:22:41.394Z,67.3579
2019-04-05T13:22:49.398Z,67.9042
2019-04-05T13:22:57.397Z,68.0140
2019-04-05T13:23:06.706Z,68.1239
2019-04-05T13:23:14.359Z,66.6728
2019-04-05T13:23:22.368Z,66.3157
2019-04-05T13:23:30.403Z,67.4510
2019-04-05T13:23:38.512Z,68.8548
2019-04-05T13:23:45.395Z,67.2572
2019-04-05T13:23:53.374Z,66.0899
2019-04-05T13:24:04.030Z,66.1128
2019-04-05T13:24:12.386Z,68.6030
2019-04-05T13:24:20.366Z,68.4199
2019-04-05T13:24:28.369Z,65.6825
2019-04-05T13:24:39.501Z,64.7166
2019-04-05T13:24:50.390Z,65.4505
2019-04-05T13:24:58.393Z,65.1118
2019-04-05T13:25:06.470Z,65.0156
2019-04-05T13:25:14.509Z,65.0507
2019-04-05T13:25:23.083Z,67.5471
2019-04-05T13:25:30.404Z,67.8203
2019-04-05T13:25:38.886Z,68.2017
2019-04-05T13:25:48.368Z,65.8198
2019-04-05T13:25:56.378Z,64.9378
2019-04-05T13:26:04.356Z,63.9719
2019-04-05T13:26:12.571Z,65.2766
2019-04-05T13:26:20.404Z,66.8238
2019-04-05T13:26:28.369Z,67.5151
2019-04-05T13:26:36.965Z,67.1702
2019-04-05T13:26:45.362Z,65.8656
2019-04-05T13:26:53.508Z,65.7008
2019-04-05T13:27:02.014Z,66.2333
2019-04-05T13:27:11.713Z,66.8086
2019-04-05T13:27:20.374Z,66.8147
2019-04-05T13:27:28.376Z,65.6977
2019-04-05T13:27:36.397Z,65.3910
2019-04-05T13:27:44.396Z,65.2613
2019-04-05T13:27:52.413Z,64.2359
2019-04-05T13:28:12.508Z,63.9887
2019-04-05T13:28:15.810Z,64.7822
2019-04-05T13:28:26.407Z,63.7430
2019-04-05T13:28:34.370Z,64.2084
2019-04-05T13:28:42.381Z,66.4744
2019-04-05T13:28:50.363Z,67.1473
2019-04-05T13:28:58.403Z,66.4256
2019-04-05T13:29:06.384Z,65.7252
2019-04-05T13:29:14.381Z,67.1260
2019-04-05T13:29:22.397Z,65.4948
2019-04-05T13:29:30.387Z,65.5177
2019-04-05T13:29:38.891Z,65.9571
2019-04-05T13:29:47.313Z,65.6977
2019-04-05T13:29:57.387Z,66.4744
2019-04-05T13:30:05.382Z,67.0237
2019-04-05T13:30:13.397Z,66.8498
2019-04-05T13:30:21.414Z,64.5884
2019-04-05T13:30:29.363Z,64.7959
2019-04-05T13:30:37.378Z,65.4902
2019-04-05T13:30:48.107Z,65.6138
2019-04-05T13:30:57.394Z,65.2476
2019-04-05T13:31:04.425Z,65.1102
2019-04-05T13:31:12.376Z,65.7282
2019-04-05T13:31:20.389Z,66.6590
2019-04-05T13:31:28.528Z,66.7277
2019-04-05T13:31:36.413Z,67.9759
2019-04-05T13:31:44.378Z,68.7236
2019-04-05T13:31:52.363Z,67.9042
2019-04-05T13:32:00.358Z,68.8609
2019-04-05T13:32:08.386Z,68.3604
2019-04-05T13:32:17.255Z,68.1834
2019-04-05T13:32:26.388Z,66.9841
2019-04-05T13:32:34.395Z,68.7312
2019-04-05T13:32:42.363Z,70.2846
2019-04-05T13:32:52.737Z,68.0629
2019-04-05T13:33:01.392Z,64.9775
2019-04-05T13:33:09.368Z,65.1789
2019-04-05T13:33:17.387Z,65.1942
2019-04-05T13:33:25.387Z,66.9154
2019-04-05T13:33:33.392Z,66.9963
2019-04-05T13:33:41.370Z,65.4078
2019-04-05T13:33:49.397Z,65.5604
2019-04-05T13:33:57.406Z,65.6779
2019-04-05T13:34:06.123Z,65.7511
2019-04-05T13:34:14.387Z,66.6438
2019-04-05T13:34:25.588Z,66.7720
2019-04-05T13:34:33.363Z,68.3665
2019-04-05T13:34:41.386Z,67.2847
2019-04-05T13:34:49.396Z,65.8625
2019-04-05T13:34:57.374Z,65.3132
2019-04-05T13:35:05.405Z,65.1102
2019-04-05T13:35:12.515Z,65.4551
2019-04-05T13:35:20.392Z,65.2979
2019-04-05T13:35:28.397Z,65.7618
2019-04-05T13:35:36.415Z,65.4856
2019-04-05T13:35:44.436Z,65.8747
2019-04-05T13:35:51.370Z,66.9703
2019-04-05T13:35:58.397Z,66.5904
2019-04-05T13:36:08.390Z,66.4347
2019-04-05T13:36:16.376Z,67.6509
2019-04-05T13:36:24.384Z,66.4210
2019-04-05T13:36:32.404Z,65.5787
2019-04-05T13:36:40.560Z,66.2013
2019-04-05T13:36:48.410Z,67.4372
2019-04-05T13:36:56.988Z,66.7598
2019-04-05T13:37:05.435Z,65.4002
2019-04-05T13:37:20.059Z,65.6367
2019-04-05T13:37:26.375Z,67.1290
2019-04-05T13:37:34.367Z,68.3513
2019-04-05T13:37:43.387Z,66.9108
2019-04-05T13:37:50.415Z,65.4139
2019-04-05T13:38:00.490Z,64.9241
2019-04-05T13:38:08.562Z,66.3645
2019-04-05T13:38:16.395Z,67.6371
2019-04-05T13:38:24.414Z,66.6728
2019-04-05T13:38:32.427Z,65.9388
2019-04-05T13:38:40.415Z,66.4576
2019-04-05T13:38:54.716Z,66.8925
2019-04-05T13:39:01.437Z,65.5314
2019-04-05T13:39:09.402Z,64.7303
2019-04-05T13:39:17.390Z,66.1860
2019-04-05T13:39:25.397Z,68.6046
2019-04-05T13:39:33.398Z,70.6462
2019-04-05T13:39:41.403Z,67.4830
2019-04-05T13:39:49.447Z,66.4881
2019-04-05T13:39:57.677Z,65.7526
2019-04-05T13:40:08.385Z,64.8997
2019-04-05T13:40:16.361Z,63.9445
2019-04-05T13:40:24.386Z,65.8991
2019-04-05T13:40:32.446Z,67.0527
2019-04-05T13:40:40.367Z,66.4378
2019-04-05T13:40:48.357Z,65.7526
2019-04-05T13:40:57.020Z,64.3320
2019-04-05T13:41:05.433Z,63.3448
2019-04-05T13:41:13.359Z,63.9109
2019-04-05T13:41:21.435Z,65.3208
2019-04-05T13:41:31.271Z,65.3498
2019-04-05T13:41:40.399Z,64.2496
2019-04-05T13:41:48.394Z,64.3046
2019-04-05T13:41:56.391Z,63.7690
2019-04-05T13:42:04.401Z,63.0243
2019-04-05T13:42:12.385Z,62.2995
2019-04-05T13:42:20.398Z,62.2629
2019-04-05T13:42:31.114Z,62.6169
2019-04-05T13:42:39.389Z,64.0345
2019-04-05T13:42:47.404Z,65.3803
2019-04-05T13:42:55.414Z,65.8213
2019-04-05T13:43:03.516Z,64.9607
2019-04-05T13:43:11.382Z,63.9765
2019-04-05T13:43:19.378Z,63.4256
2019-04-05T13:43:27.389Z,63.3494
2019-04-05T13:43:35.384Z,64.1230
2019-04-05T13:43:43.364Z,64.0726
2019-04-05T13:43:51.412Z,65.1011
2019-04-05T13:44:01.632Z,65.2613